createdAt,value
2023-03-21T00:03:54.789Z,64.33
2023-03-21T00:08:58.054Z,69.00
2023-03-21T00:14:02.560Z,62.00
2023-03-21T00:19:10.108Z,56.00
2023-03-21T00:24:13.485Z,56.00
2023-03-21T00:29:17.333Z,59.00
2023-03-21T00:34:31.900Z,57.50
2023-03-21T00:39:49.393Z,56.00
2023-03-21T00:44:52.678Z,57.00
2023-03-21T00:49:56.334Z,56.50
2023-03-21T00:54:59.542Z,56.00
2023-03-21T01:00:07.981Z,57.50
2023-03-21T01:05:12.807Z,60.50
2023-03-21T01:10:16.475Z,60.00
2023-03-21T01:15:19.920Z,63.00
2023-03-21T01:20:23.389Z,59.00
2023-03-21T01:25:26.764Z,58.50
2023-03-21T01:30:33.949Z,56.50
2023-03-21T01:35:49.219Z,51.50
2023-03-21T01:40:56.791Z,54.00
2023-03-21T01:46:10.211Z,55.00
2023-03-21T01:51:53.652Z,55.33
2023-03-21T01:57:01.105Z,59.50
2023-03-21T02:02:10.140Z,57.00
2023-03-21T02:07:32.039Z,50.67
2023-03-21T02:12:40.131Z,54.00
2023-03-21T02:17:54.321Z,56.67
2023-03-21T02:23:38.218Z,60.00
2023-03-21T02:29:01.044Z,58.00
2023-03-21T02:34:43.431Z,61.00
2023-03-21T02:39:50.315Z,55.50
2023-03-21T02:45:04.856Z,54.33
2023-03-21T02:50:30.599Z,54.67
2023-03-21T03:06:58.883Z,52.00
2023-03-21T03:12:17.445Z,53.00
2023-03-21T03:17:50.033Z,50.00
2023-03-21T03:22:56.331Z,49.50
2023-03-21T03:28:01.619Z,44.50
2023-03-21T03:33:07.579Z,48.67
2023-03-21T03:38:12.162Z,50.00
2023-03-21T03:43:24.533Z,55.50
2023-03-21T03:48:34.911Z,61.00
2023-03-21T03:53:46.449Z,65.00
2023-03-21T03:58:51.210Z,71.50
2023-03-21T04:04:10.413Z,69.00
2023-03-21T04:09:21.944Z,67.00
2023-03-21T04:14:42.065Z,70.00
2023-03-21T04:19:48.534Z,70.50
2023-03-21T04:24:51.939Z,64.00
2023-03-21T04:29:56.661Z,67.50
2023-03-21T04:35:14.481Z,63.50
2023-03-21T04:40:19.153Z,73.00
2023-03-21T04:45:25.340Z,64.50
2023-03-21T04:50:29.194Z,67.00
2023-03-21T04:55:33.377Z,67.00
2023-03-21T05:00:40.387Z,61.50
2023-03-21T05:05:43.694Z,60.00
2023-03-21T05:10:47.558Z,60.00
2023-03-21T05:15:50.899Z,60.00
2023-03-21T05:20:55.472Z,66.00
2023-03-21T05:25:59.683Z,59.00
2023-03-21T05:31:17.013Z,53.50
2023-03-21T05:36:21.104Z,46.00
2023-03-21T05:41:24.703Z,49.00
2023-03-21T05:46:28.299Z,50.00
2023-03-21T05:51:32.304Z,40.00
2023-03-21T05:56:35.944Z,44.50
2023-03-21T06:01:42.062Z,41.00
2023-03-21T06:06:48.168Z,40.00
2023-03-21T06:11:54.059Z,35.00
2023-03-21T06:17:07.524Z,23.50
2023-03-21T06:22:12.917Z,23.00
2023-03-21T06:27:17.637Z,23.00
2023-03-21T06:32:39.311Z,23.00
2023-03-21T06:37:49.644Z,18.50
2023-03-21T06:42:54.652Z,16.50
2023-03-21T06:47:57.960Z,20.00
2023-03-21T06:53:08.054Z,22.00
2023-03-21T06:58:26.236Z,15.00
2023-03-21T07:03:30.163Z,17.50
2023-03-21T07:08:37.392Z,13.50
2023-03-21T07:13:41.307Z,16.50
2023-03-21T07:18:45.515Z,13.00
2023-03-21T07:23:50.537Z,10.00
2023-03-21T07:28:54.011Z,7.00
2023-03-21T07:33:57.324Z,8.00
2023-03-21T07:39:00.542Z,12.00
2023-03-21T07:44:03.821Z,10.00
2023-03-21T07:49:09.580Z,8.00
2023-03-21T07:54:12.877Z,9.50
2023-03-21T07:59:16.058Z,7.00
2023-03-21T08:04:19.405Z,10.00
2023-03-21T08:09:22.628Z,10.00
2023-03-21T08:14:25.834Z,7.33
2023-03-21T08:19:29.329Z,9.50
2023-03-21T08:24:35.248Z,10.00
2023-03-21T08:29:40.800Z,10.50
2023-03-21T08:34:44.132Z,9.00
2023-03-21T08:39:47.461Z,9.33
2023-03-21T08:44:51.309Z,10.00
2023-03-21T08:49:54.514Z,13.00
2023-03-21T08:54:57.760Z,17.00
2023-03-21T09:00:01.098Z,21.00
2023-03-21T09:05:06.440Z,21.00
2023-03-21T09:10:21.973Z,24.00
2023-03-21T09:15:29.096Z,22.50
2023-03-21T09:20:33.195Z,24.00
2023-03-21T09:25:37.771Z,19.00
2023-03-21T09:30:41.785Z,21.50
2023-03-21T09:35:45.070Z,16.00
2023-03-21T09:41:18.753Z,26.00
2023-03-21T09:46:34.788Z,23.00
2023-03-21T09:51:43.162Z,30.00
2023-03-21T09:56:47.910Z,28.67
2023-03-21T10:01:51.765Z,20.00
